createdAt,value
2017-04-15T00:00:34.962Z,0
2017-04-15T00:01:43.850Z,0
2017-04-15T00:02:53.713Z,0
2017-04-15T00:04:02.970Z,0
2017-04-15T00:05:11.867Z,0
2017-04-15T00:06:21.411Z,0
2017-04-15T00:07:30.650Z,0
2017-04-15T00:08:40.287Z,0
2017-04-15T00:09:49.179Z,0
2017-04-15T00:10:58.444Z,0
2017-04-15T00:12:07.656Z,0
2017-04-15T00:13:17.242Z,0
2017-04-15T00:14:26.460Z,0
2017-04-15T00:15:35.993Z,0
2017-04-15T00:16:45.416Z,0
2017-04-15T00:17:54.627Z,0
2017-04-15T00:19:03.844Z,0
2017-04-15T00:20:12.735Z,0
2017-04-15T00:21:21.948Z,0
2017-04-15T00:22:31.316Z,0
2017-04-15T00:23:40.206Z,0
2017-04-15T00:24:49.416Z,0
2017-04-15T00:25:58.300Z,0
2017-04-15T00:27:07.510Z,0
2017-04-15T00:28:16.550Z,0
2017-04-15T00:29:25.437Z,0
2017-04-15T00:30:34.979Z,0
2017-04-15T00:31:44.197Z,0
2017-04-15T00:32:54.070Z,0
2017-04-15T00:34:03.858Z,0
2017-04-15T00:35:13.391Z,0
2017-04-15T00:36:22.603Z,0
2017-04-15T00:37:31.497Z,0
2017-04-15T00:38:40.711Z,0
2017-04-15T00:39:49.925Z,0
2017-04-15T00:40:59.527Z,0
2017-04-15T00:42:08.821Z,0
2017-04-15T00:43:18.537Z,0
2017-04-15T00:44:27.969Z,0
2017-04-15T00:45:37.656Z,0
2017-04-15T00:46:46.865Z,0
2017-04-15T00:47:56.404Z,0
2017-04-15T00:49:05.941Z,0
2017-04-15T00:50:15.165Z,0
2017-04-15T00:51:24.157Z,0
2017-04-15T00:52:33.375Z,0
2017-04-15T00:53:42.914Z,0
2017-04-15T00:54:52.448Z,0
2017-04-15T00:56:01.650Z,0
2017-04-15T00:57:10.530Z,0
2017-04-15T00:58:19.734Z,0
2017-04-15T00:59:28.941Z,0
2017-04-15T01:00:38.479Z,0
2017-04-15T01:01:47.685Z,0
2017-04-15T01:02:57.699Z,0
2017-04-15T01:04:06.591Z,0
2017-04-15T01:05:15.805Z,0
2017-04-15T01:06:25.016Z,0
2017-04-15T01:07:34.232Z,0
2017-04-15T01:08:44.142Z,0
2017-04-15T01:09:53.349Z,0
2017-04-15T01:11:02.563Z,0
2017-04-15T01:12:11.778Z,0
2017-04-15T01:13:20.997Z,0
2017-04-15T01:14:30.682Z,0
2017-04-15T01:15:39.892Z,0
2017-04-15T01:16:48.773Z,0
2017-04-15T01:17:57.659Z,0
2017-04-15T01:19:06.872Z,0
2017-04-15T01:20:16.830Z,0
2017-04-15T01:21:26.035Z,0
2017-04-15T01:22:35.248Z,0
2017-04-15T01:23:44.465Z,0
2017-04-15T01:24:53.999Z,0
2017-04-15T01:26:03.034Z,0
2017-04-15T01:27:12.200Z,0
2017-04-15T01:28:21.740Z,0
2017-04-15T01:29:31.274Z,0
2017-04-15T01:30:40.218Z,0
2017-04-15T01:31:49.353Z,0
2017-04-15T01:32:58.888Z,0
2017-04-15T01:34:08.097Z,0
2017-04-15T01:35:16.982Z,0
2017-04-15T01:36:25.867Z,0
2017-04-15T01:37:34.901Z,0
2017-04-15T01:38:44.766Z,0
2017-04-15T01:39:54.296Z,0
2017-04-15T01:41:04.153Z,0
2017-04-15T01:42:14.005Z,0
2017-04-15T01:43:22.942Z,0
2017-04-15T01:44:32.483Z,0
2017-04-15T01:45:41.363Z,0
2017-04-15T01:46:50.895Z,0
2017-04-15T01:48:00.755Z,0
2017-04-15T01:49:10.713Z,0
2017-04-15T01:50:19.924Z,0
2017-04-15T01:51:29.131Z,0
2017-04-15T01:52:38.015Z,0
2017-04-15T01:53:47.868Z,0
2017-04-15T01:54:58.207Z,0
2017-04-15T01:56:07.414Z,0
2017-04-15T01:57:17.286Z,0
2017-04-15T01:58:26.221Z,0
2017-04-15T01:59:35.430Z,0
2017-04-15T02:00:45.012Z,0
2017-04-15T02:01:54.215Z,0
2017-04-15T02:03:03.745Z,0
2017-04-15T02:04:13.278Z,0
2017-04-15T02:05:22.574Z,0
2017-04-15T02:06:31.937Z,0
2017-04-15T02:07:41.474Z,0
2017-04-15T02:08:50.684Z,0
2017-04-15T02:10:00.548Z,0
2017-04-15T02:11:10.079Z,0
2017-04-15T02:12:19.118Z,0
2017-04-15T02:13:28.323Z,0
2017-04-15T02:14:38.183Z,0
2017-04-15T02:15:47.067Z,0
2017-04-15T02:16:55.960Z,0
2017-04-15T02:18:05.548Z,0
2017-04-15T02:19:14.761Z,0
2017-04-15T02:20:24.293Z,0
2017-04-15T02:21:33.181Z,0
2017-04-15T02:22:42.389Z,0
2017-04-15T02:23:51.760Z,0
2017-04-15T02:25:00.645Z,0
2017-04-15T02:26:09.523Z,0
2017-04-15T02:27:18.727Z,0
2017-04-15T02:28:28.262Z,0
2017-04-15T02:29:37.303Z,0
2017-04-15T02:30:47.162Z,0
2017-04-15T02:31:56.369Z,0
2017-04-15T02:33:05.257Z,0
2017-04-15T02:34:14.788Z,0
2017-04-15T02:35:24.463Z,0
2017-04-15T02:36:33.673Z,0
2017-04-15T02:37:42.886Z,0
2017-04-15T02:38:51.768Z,0
2017-04-15T02:40:01.320Z,0
2017-04-15T02:41:10.680Z,0
2017-04-15T02:42:20.044Z,0
2017-04-15T02:43:29.580Z,0
2017-04-15T02:44:38.788Z,0
2017-04-15T02:45:47.669Z,0
2017-04-15T02:46:57.037Z,0
2017-04-15T02:48:07.098Z,0
2017-04-15T02:49:16.961Z,0
2017-04-15T02:50:26.168Z,0
2017-04-15T02:51:35.056Z,0
2017-04-15T02:52:44.838Z,0
2017-04-15T02:53:54.374Z,0
2017-04-15T02:55:03.914Z,0
2017-04-15T02:56:12.796Z,0
2017-04-15T02:57:22.003Z,0
2017-04-15T02:58:31.693Z,0
2017-04-15T02:59:41.228Z,0
2017-04-15T03:00:50.108Z,0
2017-04-15T03:01:59.642Z,0
2017-04-15T03:03:08.847Z,0
2017-04-15T03:04:18.374Z,0
2017-04-15T03:05:27.256Z,0
2017-04-15T03:06:36.468Z,0
2017-04-15T03:07:46.009Z,0
2017-04-15T03:08:55.869Z,0
2017-04-15T03:10:05.174Z,0
2017-04-15T03:11:14.383Z,0
2017-04-15T03:12:23.593Z,0
2017-04-15T03:13:33.124Z,0
2017-04-15T03:14:42.020Z,0
2017-04-15T03:15:51.858Z,0
2017-04-15T03:17:01.722Z,0
2017-04-15T03:18:10.612Z,0
2017-04-15T03:19:21.124Z,0
2017-04-15T03:20:30.332Z,0
2017-04-15T03:21:39.614Z,0
2017-04-15T03:22:48.501Z,0
2017-04-15T03:23:57.707Z,0
2017-04-15T03:25:07.560Z,0
2017-04-15T03:26:16.440Z,0
2017-04-15T03:27:25.424Z,0
2017-04-15T03:28:34.855Z,0
2017-04-15T03:29:44.193Z,0
2017-04-15T03:30:53.398Z,0
2017-04-15T03:32:02.934Z,0
2017-04-15T03:33:12.618Z,0
2017-04-15T03:34:22.367Z,0
2017-04-15T03:35:31.771Z,0
2017-04-15T03:36:40.651Z,0
2017-04-15T03:37:50.508Z,0
2017-04-15T03:38:59.743Z,0
2017-04-15T03:40:09.596Z,0
2017-04-15T03:41:18.800Z,0
2017-04-15T03:42:28.007Z,0
2017-04-15T03:43:37.215Z,0
2017-04-15T03:44:46.676Z,0
2017-04-15T03:45:56.213Z,0
2017-04-15T03:47:05.748Z,0
2017-04-15T03:48:14.959Z,0
2017-04-15T03:49:24.817Z,0
2017-04-15T03:50:33.705Z,0
2017-04-15T03:51:42.917Z,0
2017-04-15T03:52:52.778Z,0
2017-04-15T03:54:01.662Z,0
2017-04-15T03:55:10.892Z,0
2017-04-15T03:56:20.254Z,0
2017-04-15T03:57:29.461Z,0
2017-04-15T03:58:38.344Z,0
2017-04-15T03:59:47.890Z,0
2017-04-15T04:00:56.777Z,0
2017-04-15T04:02:06.241Z,0
2017-04-15T04:03:15.446Z,0
2017-04-15T04:04:24.326Z,0
2017-04-15T04:05:33.208Z,0
2017-04-15T04:06:42.089Z,0
2017-04-15T04:07:51.443Z,0
2017-04-15T04:09:00.978Z,0
2017-04-15T04:10:09.858Z,0
2017-04-15T04:11:19.063Z,0
2017-04-15T04:12:28.267Z,0
2017-04-15T04:13:37.788Z,0
2017-04-15T04:14:47.326Z,0
2017-04-15T04:15:56.210Z,0
2017-04-15T04:17:05.090Z,0
2017-04-15T04:18:14.298Z,0
2017-04-15T04:19:23.628Z,0
2017-04-15T04:20:32.510Z,0
2017-04-15T04:21:41.454Z,0
2017-04-15T04:22:50.985Z,0
2017-04-15T04:24:00.792Z,0
2017-04-15T04:25:09.996Z,0
2017-04-15T04:26:19.062Z,0
2017-04-15T04:27:28.281Z,5
2017-04-15T04:28:38.145Z,5
2017-04-15T04:29:47.682Z,5
2017-04-15T04:30:56.663Z,5
2017-04-15T04:32:05.872Z,5
2017-04-15T04:33:15.745Z,5
2017-04-15T04:34:25.284Z,5
2017-04-15T04:35:34.494Z,5
2017-04-15T04:36:43.634Z,5
2017-04-15T04:37:52.531Z,5
2017-04-15T04:39:02.063Z,5
2017-04-15T04:40:11.597Z,5
2017-04-15T04:41:20.482Z,5
2017-04-15T04:42:30.014Z,5
2017-04-15T04:43:38.903Z,5
2017-04-15T04:44:48.764Z,5
2017-04-15T04:45:57.654Z,5
2017-04-15T04:47:06.859Z,5
2017-04-15T04:48:16.640Z,5
2017-04-15T04:49:25.846Z,5
2017-04-15T04:50:35.059Z,10
2017-04-15T04:51:43.943Z,10
2017-04-15T04:52:53.157Z,10
2017-04-15T04:54:02.698Z,10
2017-04-15T04:55:11.903Z,10
2017-04-15T04:56:20.784Z,10
2017-04-15T04:57:30.315Z,10
2017-04-15T04:58:39.866Z,10
2017-04-15T04:59:49.174Z,10
2017-04-15T05:00:58.058Z,10
2017-04-15T05:02:06.940Z,10
2017-04-15T05:03:16.164Z,15
2017-04-15T05:04:26.022Z,15
2017-04-15T05:05:35.860Z,20
2017-04-15T05:06:44.745Z,20
2017-04-15T05:07:54.277Z,20
2017-04-15T05:09:03.516Z,25
2017-04-15T05:10:13.154Z,20
2017-04-15T05:11:22.593Z,25
2017-04-15T05:12:31.799Z,25
2017-04-15T05:13:41.336Z,30
2017-04-15T05:14:50.607Z,25
2017-04-15T05:15:59.897Z,20
2017-04-15T05:17:09.261Z,20
2017-04-15T05:18:18.472Z,15
2017-04-15T05:19:28.016Z,15
2017-04-15T05:20:36.909Z,20
2017-04-15T05:21:45.792Z,25
2017-04-15T05:22:55.369Z,20
2017-04-15T05:24:04.909Z,20
2017-04-15T05:25:15.088Z,15
2017-04-15T05:26:23.970Z,20
2017-04-15T05:27:33.177Z,15
2017-04-15T05:28:42.866Z,20
2017-04-15T05:29:52.077Z,20
2017-04-15T05:31:01.305Z,20
2017-04-15T05:32:10.517Z,25
2017-04-15T05:33:20.375Z,25
2017-04-15T05:34:30.386Z,30
2017-04-15T05:35:39.915Z,30
2017-04-15T05:36:49.774Z,25
2017-04-15T05:37:58.658Z,30
2017-04-15T05:39:08.189Z,40
2017-04-15T05:40:17.327Z,35
2017-04-15T05:41:26.528Z,40
2017-04-15T05:42:35.416Z,35
2017-04-15T05:43:44.959Z,35
2017-04-15T05:44:54.167Z,40
2017-04-15T05:46:03.199Z,55
2017-04-15T05:47:12.082Z,55
2017-04-15T05:48:20.969Z,80
2017-04-15T05:49:30.503Z,75
2017-04-15T05:50:39.384Z,65
2017-04-15T05:51:48.318Z,70
2017-04-15T05:52:57.557Z,60
2017-04-15T05:54:06.766Z,60
2017-04-15T05:55:16.304Z,50
2017-04-15T05:56:25.836Z,45
2017-04-15T05:57:35.518Z,30
2017-04-15T05:58:45.379Z,35
2017-04-15T05:59:54.912Z,40
2017-04-15T06:01:03.800Z,55
2017-04-15T06:02:13.331Z,65
2017-04-15T06:03:22.314Z,55
2017-04-15T06:04:31.534Z,40
2017-04-15T06:05:40.745Z,35
2017-04-15T06:06:49.950Z,30
2017-04-15T06:07:59.488Z,25
2017-04-15T06:09:08.856Z,25
2017-04-15T06:10:18.392Z,30
2017-04-15T06:11:27.273Z,40
2017-04-15T06:12:36.488Z,50
2017-04-15T06:13:46.349Z,60
2017-04-15T06:14:55.705Z,65
2017-04-15T06:16:05.232Z,35
2017-04-15T06:17:14.125Z,35
2017-04-15T06:18:23.014Z,40
2017-04-15T06:19:32.878Z,45
2017-04-15T06:20:42.411Z,45
2017-04-15T06:21:51.297Z,50
2017-04-15T06:23:00.186Z,55
2017-04-15T06:24:09.395Z,60
2017-04-15T06:25:18.277Z,65
2017-04-15T06:26:27.634Z,70
2017-04-15T06:27:36.850Z,85
2017-04-15T06:28:46.709Z,65
2017-04-15T06:29:55.931Z,60
2017-04-15T06:31:05.141Z,75
2017-04-15T06:32:14.031Z,90
2017-04-15T06:33:23.572Z,90
2017-04-15T06:34:33.431Z,105
2017-04-15T06:35:42.317Z,95
2017-04-15T06:36:51.522Z,100
2017-04-15T06:38:01.030Z,90
2017-04-15T06:39:10.561Z,100
2017-04-15T06:40:19.769Z,95
2017-04-15T06:41:28.658Z,90
2017-04-15T06:42:37.866Z,90
2017-04-15T06:43:47.178Z,80
2017-04-15T06:44:56.064Z,100
2017-04-15T06:46:05.267Z,100
2017-04-15T06:47:14.806Z,90
2017-04-15T06:48:24.057Z,105
2017-04-15T06:49:33.652Z,105
2017-04-15T06:50:42.808Z,125
2017-04-15T06:51:52.015Z,120
2017-04-15T06:53:00.919Z,125
2017-04-15T06:54:10.456Z,125
2017-04-15T06:55:19.425Z,110
2017-04-15T06:56:28.961Z,130
2017-04-15T06:57:38.359Z,130
2017-04-15T06:58:47.906Z,140
2017-04-15T06:59:57.655Z,105
2017-04-15T07:01:07.142Z,75
2017-04-15T07:02:16.293Z,65
2017-04-15T07:03:25.593Z,75
2017-04-15T07:04:34.866Z,85
2017-04-15T07:05:44.772Z,95
2017-04-15T07:06:53.810Z,120
2017-04-15T07:08:03.671Z,245
2017-04-15T07:09:13.344Z,370
2017-04-15T07:10:22.557Z,385
2017-04-15T07:11:31.437Z,335
2017-04-15T07:12:41.091Z,255
2017-04-15T07:13:51.285Z,205
2017-04-15T07:15:00.824Z,225
2017-04-15T07:16:10.049Z,215
2017-04-15T07:17:18.935Z,205
2017-04-15T07:18:28.569Z,190
2017-04-15T07:19:37.782Z,170
2017-04-15T07:20:46.671Z,155
2017-04-15T07:21:56.206Z,165
2017-04-15T07:23:05.416Z,200
2017-04-15T07:24:14.878Z,240
2017-04-15T07:25:24.083Z,205
2017-04-15T07:26:33.938Z,200
2017-04-15T07:27:43.161Z,205
2017-04-15T07:28:52.372Z,210
2017-04-15T07:30:02.382Z,175
2017-04-15T07:31:11.262Z,155
2017-04-15T07:32:20.794Z,120
2017-04-15T07:33:30.330Z,105
2017-04-15T07:34:39.869Z,100
2017-04-15T07:35:49.605Z,100
2017-04-15T07:36:58.489Z,105
2017-04-15T07:38:07.378Z,115
2017-04-15T07:39:17.244Z,110
2017-04-15T07:40:26.141Z,115
2017-04-15T07:41:35.183Z,180
2017-04-15T07:42:45.052Z,215
2017-04-15T07:43:54.585Z,275
2017-04-15T07:45:04.118Z,290
2017-04-15T07:46:13.651Z,310
2017-04-15T07:47:22.584Z,270
2017-04-15T07:48:32.781Z,245
2017-04-15T07:49:41.992Z,240
2017-04-15T07:50:51.200Z,250
2017-04-15T07:52:00.411Z,260
2017-04-15T07:53:09.767Z,275
2017-04-15T07:54:18.974Z,340
2017-04-15T07:55:27.859Z,275
2017-04-15T07:56:36.751Z,275
2017-04-15T07:57:46.300Z,325
2017-04-15T07:58:56.313Z,365
2017-04-15T08:00:05.196Z,430
2017-04-15T08:01:14.740Z,430
2017-04-15T08:02:23.620Z,400
2017-04-15T08:03:32.505Z,405
2017-04-15T08:04:42.214Z,475
2017-04-15T08:05:51.750Z,395
2017-04-15T08:07:01.281Z,355
2017-04-15T08:08:10.488Z,335
2017-04-15T08:09:20.023Z,345
2017-04-15T08:10:29.380Z,425
2017-04-15T08:11:38.269Z,395
2017-04-15T08:12:47.149Z,330
2017-04-15T08:13:56.678Z,325
2017-04-15T08:15:05.889Z,335
2017-04-15T08:16:14.829Z,330
2017-04-15T08:17:23.716Z,330
2017-04-15T08:18:32.601Z,400
2017-04-15T08:19:42.132Z,435
2017-04-15T08:20:51.152Z,415
2017-04-15T08:22:00.683Z,450
2017-04-15T08:23:10.175Z,420
2017-04-15T08:24:19.401Z,385
2017-04-15T08:25:29.117Z,355
2017-04-15T08:26:38.010Z,300
2017-04-15T08:27:47.798Z,295
2017-04-15T08:28:57.685Z,360
2017-04-15T08:30:06.890Z,375
2017-04-15T08:31:15.908Z,375
2017-04-15T08:32:24.795Z,365
2017-04-15T08:33:34.838Z,360
2017-04-15T08:34:45.026Z,350
2017-04-15T08:35:53.913Z,375
2017-04-15T08:37:02.796Z,390
2017-04-15T08:38:11.677Z,385
2017-04-15T08:39:21.309Z,335
2017-04-15T08:40:30.197Z,310
2017-04-15T08:41:39.730Z,315
2017-04-15T08:42:48.627Z,335
2017-04-15T08:43:57.839Z,250
2017-04-15T08:45:07.123Z,250
2017-04-15T08:46:16.015Z,295
2017-04-15T08:47:24.898Z,420
2017-04-15T08:48:34.430Z,435
2017-04-15T08:49:43.959Z,375
2017-04-15T08:50:53.193Z,355
2017-04-15T08:52:02.076Z,355
2017-04-15T08:53:11.288Z,285
2017-04-15T08:54:20.832Z,360
2017-04-15T08:55:30.035Z,445
2017-04-15T08:56:39.290Z,470
2017-04-15T08:57:48.500Z,545
2017-04-15T08:58:58.037Z,505
2017-04-15T09:00:06.920Z,480
2017-04-15T09:01:15.806Z,540
2017-04-15T09:02:24.941Z,550
2017-04-15T09:03:34.805Z,505
2017-04-15T09:04:44.017Z,520
2017-04-15T09:05:53.230Z,460
2017-04-15T09:07:02.440Z,375
2017-04-15T09:08:11.475Z,315
2017-04-15T09:09:21.342Z,265
2017-04-15T09:10:30.564Z,250
2017-04-15T09:11:39.773Z,235
2017-04-15T09:12:48.985Z,240
2017-04-15T09:13:58.026Z,260
2017-04-15T09:15:07.237Z,195
2017-04-15T09:16:17.090Z,215
2017-04-15T09:17:26.949Z,255
2017-04-15T09:18:36.810Z,245
2017-04-15T09:19:46.345Z,270
2017-04-15T09:20:55.552Z,325
2017-04-15T09:22:04.441Z,345
2017-04-15T09:23:13.654Z,305
2017-04-15T09:24:22.885Z,345
2017-04-15T09:25:32.401Z,455
2017-04-15T09:26:41.608Z,410
2017-04-15T09:27:50.816Z,360
2017-04-15T09:29:00.357Z,320
2017-04-15T09:30:09.254Z,345
2017-04-15T09:31:18.693Z,465
2017-04-15T09:32:27.904Z,510
2017-04-15T09:33:37.709Z,445
2017-04-15T09:34:47.244Z,350
2017-04-15T09:35:56.138Z,315
2017-04-15T09:37:05.842Z,315
2017-04-15T09:38:15.179Z,320
2017-04-15T09:39:24.740Z,325
2017-04-15T09:40:33.708Z,325
2017-04-15T09:41:42.725Z,350
2017-04-15T09:42:51.865Z,390
2017-04-15T09:44:01.406Z,500
2017-04-15T09:45:10.294Z,595
2017-04-15T09:46:19.181Z,625
2017-04-15T09:47:28.077Z,630
2017-04-15T09:48:37.121Z,590
2017-04-15T09:49:46.013Z,625
2017-04-15T09:50:55.246Z,585
2017-04-15T09:52:04.457Z,500
2017-04-15T09:53:13.666Z,465
2017-04-15T09:54:23.034Z,475
2017-04-15T09:55:32.251Z,515
2017-04-15T09:56:41.783Z,550
2017-04-15T09:57:51.328Z,510
2017-04-15T09:59:01.190Z,505
2017-04-15T10:00:10.407Z,550
2017-04-15T10:01:19.615Z,575
2017-04-15T10:02:28.824Z,500
2017-04-15T10:03:38.693Z,390
2017-04-15T10:04:47.582Z,255
2017-04-15T10:05:57.416Z,170
2017-04-15T10:07:07.277Z,190
2017-04-15T10:08:16.816Z,220
2017-04-15T10:09:25.728Z,310
2017-04-15T10:10:34.940Z,365
2017-04-15T10:11:43.976Z,400
2017-04-15T10:12:53.521Z,420
2017-04-15T10:14:02.731Z,455
2017-04-15T10:15:11.617Z,475
2017-04-15T10:16:20.828Z,495
2017-04-15T10:17:30.709Z,575
2017-04-15T10:18:40.574Z,670
2017-04-15T10:19:49.459Z,700
2017-04-15T10:20:58.345Z,575
2017-04-15T10:22:07.555Z,490
2017-04-15T10:23:17.479Z,295
2017-04-15T10:24:27.021Z,245
2017-04-15T10:25:36.557Z,245
2017-04-15T10:26:45.456Z,205
2017-04-15T10:27:54.667Z,145
2017-04-15T10:29:04.205Z,100
2017-04-15T10:30:13.743Z,75
2017-04-15T10:31:22.634Z,70
2017-04-15T10:32:31.518Z,85
2017-04-15T10:33:41.054Z,110
2017-04-15T10:34:50.966Z,130
2017-04-15T10:36:00.329Z,125
2017-04-15T10:37:09.213Z,135
2017-04-15T10:38:18.670Z,165
2017-04-15T10:39:28.215Z,205
2017-04-15T10:40:37.740Z,305
2017-04-15T10:41:46.682Z,425
2017-04-15T10:42:56.269Z,620
2017-04-15T10:44:05.385Z,710
2017-04-15T10:45:14.267Z,630
2017-04-15T10:46:23.327Z,555
2017-04-15T10:47:32.669Z,480
2017-04-15T10:48:42.322Z,490
2017-04-15T10:49:51.862Z,485
2017-04-15T10:51:01.078Z,485
2017-04-15T10:52:10.815Z,480
2017-04-15T10:53:19.705Z,465
2017-04-15T10:54:28.596Z,460
2017-04-15T10:55:37.803Z,450
2017-04-15T10:56:47.016Z,430
2017-04-15T10:57:56.638Z,405
2017-04-15T10:59:06.505Z,405
2017-04-15T11:00:16.044Z,430
2017-04-15T11:01:24.936Z,510
2017-04-15T11:02:33.826Z,665
2017-04-15T11:03:43.565Z,760
2017-04-15T11:04:52.780Z,690
2017-04-15T11:06:01.992Z,655
2017-04-15T11:07:11.202Z,555
2017-04-15T11:08:20.094Z,240
2017-04-15T11:09:29.787Z,205
2017-04-15T11:10:38.673Z,120
2017-04-15T11:11:47.556Z,145
2017-04-15T11:12:57.438Z,170
2017-04-15T11:14:06.658Z,230
2017-04-15T11:15:15.981Z,330
2017-04-15T11:16:25.207Z,400
2017-04-15T11:17:34.095Z,420
2017-04-15T11:18:43.631Z,495
2017-04-15T11:19:53.491Z,475
2017-04-15T11:21:02.477Z,590
2017-04-15T11:22:11.367Z,730
2017-04-15T11:23:20.904Z,800
2017-04-15T11:24:30.442Z,800
2017-04-15T11:25:39.972Z,730
2017-04-15T11:26:49.763Z,660
2017-04-15T11:27:59.625Z,595
2017-04-15T11:29:08.863Z,500
2017-04-15T11:30:18.081Z,485
2017-04-15T11:31:26.963Z,420
2017-04-15T11:32:36.328Z,380
2017-04-15T11:33:46.513Z,390
2017-04-15T11:34:55.722Z,360
2017-04-15T11:36:04.610Z,340
2017-04-15T11:37:13.826Z,320
2017-04-15T11:38:23.515Z,325
2017-04-15T11:39:32.735Z,325
2017-04-15T11:40:42.276Z,340
2017-04-15T11:41:51.160Z,350
2017-04-15T11:43:00.049Z,365
2017-04-15T11:44:09.417Z,390
2017-04-15T11:45:18.305Z,430
2017-04-15T11:46:27.191Z,480
2017-04-15T11:47:36.088Z,410
2017-04-15T11:48:46.274Z,440
2017-04-15T11:49:56.069Z,490
2017-04-15T11:51:05.298Z,525
2017-04-15T11:52:14.521Z,410
2017-04-15T11:53:23.403Z,500
2017-04-15T11:54:32.617Z,325
2017-04-15T11:55:41.645Z,330
2017-04-15T11:56:50.854Z,375
2017-04-15T11:58:00.392Z,445
2017-04-15T11:59:09.600Z,2785
2017-04-15T12:00:18.746Z,2685
2017-04-15T12:01:27.792Z,2070
2017-04-15T12:02:36.677Z,2385
2017-04-15T12:03:46.880Z,2695
2017-04-15T12:04:56.333Z,530
2017-04-15T12:06:05.879Z,500
2017-04-15T12:07:15.383Z,2005
2017-04-15T12:08:24.621Z,2235
2017-04-15T12:09:33.833Z,2365
2017-04-15T12:10:42.718Z,2605
2017-04-15T12:11:51.612Z,3165
2017-04-15T12:13:00.677Z,1950
2017-04-15T12:14:09.897Z,3015
2017-04-15T12:15:19.113Z,3000
2017-04-15T12:16:28.377Z,2865
2017-04-15T12:17:37.274Z,3105
2017-04-15T12:18:47.288Z,2640
2017-04-15T12:19:56.519Z,2625
2017-04-15T12:21:05.413Z,645
2017-04-15T12:22:14.958Z,715
2017-04-15T12:23:23.849Z,760
2017-04-15T12:24:32.788Z,690
2017-04-15T12:25:41.683Z,580
2017-04-15T12:26:50.895Z,635
2017-04-15T12:28:00.436Z,3325
2017-04-15T12:29:09.332Z,2970
2017-04-15T12:30:19.021Z,2740
2017-04-15T12:31:28.883Z,2800
2017-04-15T12:32:38.424Z,3295
2017-04-15T12:33:47.648Z,3515
2017-04-15T12:34:56.865Z,2795
2017-04-15T12:36:06.461Z,3320
2017-04-15T12:37:16.010Z,3005
2017-04-15T12:38:25.558Z,3415
2017-04-15T12:39:35.104Z,3190
2017-04-15T12:40:44.327Z,2970
2017-04-15T12:41:53.743Z,3190
2017-04-15T12:43:02.961Z,1580
2017-04-15T12:44:12.832Z,250
2017-04-15T12:45:22.050Z,190
2017-04-15T12:46:30.948Z,150
2017-04-15T12:47:39.942Z,145
2017-04-15T12:48:48.839Z,195
2017-04-15T12:49:58.385Z,310
2017-04-15T12:51:07.942Z,415
2017-04-15T12:52:16.834Z,495
2017-04-15T12:53:26.525Z,2455
2017-04-15T12:54:36.064Z,2730
2017-04-15T12:55:44.955Z,2850
2017-04-15T12:56:54.188Z,3415
2017-04-15T12:58:03.732Z,3420
2017-04-15T12:59:13.441Z,2795
2017-04-15T13:00:22.656Z,2295
2017-04-15T13:01:32.199Z,2340
2017-04-15T13:02:41.419Z,2245
2017-04-15T13:03:50.962Z,2260
2017-04-15T13:05:00.659Z,2810
2017-04-15T13:06:10.858Z,2280
2017-04-15T13:07:20.080Z,2360
2017-04-15T13:08:28.976Z,2755
2017-04-15T13:09:38.686Z,2040
2017-04-15T13:10:48.077Z,1790
2017-04-15T13:11:57.386Z,2150
2017-04-15T13:13:06.675Z,1880
2017-04-15T13:14:16.224Z,1845
2017-04-15T13:15:25.884Z,1565
2017-04-15T13:16:35.757Z,1295
2017-04-15T13:17:44.975Z,1590
2017-04-15T13:18:54.194Z,1110
2017-04-15T13:20:03.413Z,650
2017-04-15T13:21:12.629Z,660
2017-04-15T13:22:21.573Z,435
2017-04-15T13:23:30.801Z,515
2017-04-15T13:24:40.017Z,440
2017-04-15T13:25:49.233Z,500
2017-04-15T13:26:58.124Z,720
2017-04-15T13:28:07.315Z,2010
2017-04-15T13:29:16.530Z,1705
2017-04-15T13:30:25.743Z,1405
2017-04-15T13:31:34.633Z,1035
2017-04-15T13:32:43.850Z,1730
2017-04-15T13:33:53.772Z,1430
2017-04-15T13:35:04.297Z,670
2017-04-15T13:36:13.185Z,1410
2017-04-15T13:37:22.399Z,1525
2017-04-15T13:38:31.624Z,2060
2017-04-15T13:39:40.765Z,1640
2017-04-15T13:40:49.658Z,1660
2017-04-15T13:41:58.548Z,1530
2017-04-15T13:43:07.765Z,1395
2017-04-15T13:44:17.315Z,1380
2017-04-15T13:45:26.508Z,1540
2017-04-15T13:46:35.403Z,1720
2017-04-15T13:47:45.273Z,1705
2017-04-15T13:48:54.490Z,1690
2017-04-15T13:50:03.714Z,1600
2017-04-15T13:51:12.702Z,1595
2017-04-15T13:52:21.593Z,1545
2017-04-15T13:53:30.821Z,1615
2017-04-15T13:54:40.376Z,1405
2017-04-15T13:55:49.594Z,1485
2017-04-15T13:56:58.634Z,1540
2017-04-15T13:58:07.861Z,695
2017-04-15T13:59:17.414Z,620
2017-04-15T14:00:26.952Z,755
2017-04-15T14:01:35.841Z,1165
2017-04-15T14:02:46.092Z,1645
2017-04-15T14:03:55.306Z,1600
2017-04-15T14:05:04.545Z,1530
2017-04-15T14:06:13.766Z,1085
2017-04-15T14:07:22.986Z,845
2017-04-15T14:08:32.580Z,865
2017-04-15T14:09:42.125Z,2130
2017-04-15T14:10:51.337Z,1785
2017-04-15T14:12:00.234Z,1840
2017-04-15T14:13:09.119Z,1850
2017-04-15T14:14:18.816Z,1795
2017-04-15T14:15:28.026Z,1910
2017-04-15T14:16:37.183Z,1895
2017-04-15T14:17:46.403Z,1955
2017-04-15T14:18:56.272Z,2000
2017-04-15T14:20:05.785Z,2030
2017-04-15T14:21:15.342Z,2100
2017-04-15T14:22:24.647Z,2250
2017-04-15T14:23:34.010Z,2175
2017-04-15T14:24:42.902Z,2005
2017-04-15T14:25:51.997Z,1815
2017-04-15T14:27:00.885Z,1790
2017-04-15T14:28:10.106Z,1725
2017-04-15T14:29:19.647Z,1875
2017-04-15T14:30:28.862Z,1890
2017-04-15T14:31:37.817Z,1915
2017-04-15T14:32:46.709Z,2005
2017-04-15T14:33:55.605Z,2020
2017-04-15T14:35:04.497Z,2010
2017-04-15T14:36:13.392Z,1910
2017-04-15T14:37:22.667Z,2075
2017-04-15T14:38:31.897Z,2035
2017-04-15T14:39:40.792Z,2245
2017-04-15T14:40:49.689Z,2270
2017-04-15T14:41:58.580Z,2225
2017-04-15T14:43:07.523Z,2035
2017-04-15T14:44:16.419Z,735
2017-04-15T14:45:25.640Z,910
2017-04-15T14:46:34.856Z,2405
2017-04-15T14:47:43.752Z,1875
2017-04-15T14:48:52.974Z,660
2017-04-15T14:50:02.514Z,2400
2017-04-15T14:51:11.401Z,635
2017-04-15T14:52:20.625Z,1100
2017-04-15T14:53:29.843Z,750
2017-04-15T14:54:39.360Z,815
2017-04-15T14:55:48.578Z,580
2017-04-15T14:56:57.796Z,645
2017-04-15T14:58:07.017Z,625
2017-04-15T14:59:16.884Z,660
2017-04-15T15:00:26.157Z,740
2017-04-15T15:01:35.043Z,980
2017-04-15T15:02:43.944Z,540
2017-04-15T15:03:53.810Z,380
2017-04-15T15:05:03.343Z,305
2017-04-15T15:06:12.900Z,250
2017-04-15T15:07:22.110Z,250
2017-04-15T15:08:30.999Z,240
2017-04-15T15:09:40.219Z,335
2017-04-15T15:10:49.112Z,360
2017-04-15T15:11:58.150Z,270
2017-04-15T15:13:07.369Z,170
2017-04-15T15:14:16.594Z,185
2017-04-15T15:15:25.494Z,220
2017-04-15T15:16:34.612Z,195
2017-04-15T15:17:43.949Z,180
2017-04-15T15:18:53.162Z,205
2017-04-15T15:20:02.459Z,245
2017-04-15T15:21:11.460Z,435
2017-04-15T15:22:20.345Z,615
2017-04-15T15:23:29.936Z,2145
2017-04-15T15:24:38.823Z,565
2017-04-15T15:25:48.032Z,495
2017-04-15T15:26:56.917Z,445
2017-04-15T15:28:06.795Z,585
2017-04-15T15:29:15.885Z,565
2017-04-15T15:30:25.425Z,2075
2017-04-15T15:31:34.643Z,2040
2017-04-15T15:32:43.858Z,2425
2017-04-15T15:33:53.728Z,2165
2017-04-15T15:35:02.770Z,1735
2017-04-15T15:36:11.983Z,410
2017-04-15T15:37:20.870Z,285
2017-04-15T15:38:29.754Z,165
2017-04-15T15:39:38.976Z,140
2017-04-15T15:40:48.438Z,170
2017-04-15T15:41:57.331Z,275
2017-04-15T15:43:06.874Z,1855
2017-04-15T15:44:16.754Z,545
2017-04-15T15:45:25.977Z,430
2017-04-15T15:46:35.124Z,255
2017-04-15T15:47:44.672Z,195
2017-04-15T15:48:53.573Z,150
2017-04-15T15:50:02.785Z,145
2017-04-15T15:51:12.001Z,195
2017-04-15T15:52:21.645Z,275
2017-04-15T15:53:30.871Z,380
2017-04-15T15:54:40.408Z,425
2017-04-15T15:55:49.638Z,485
2017-04-15T15:56:58.847Z,2175
2017-04-15T15:58:08.758Z,2295
2017-04-15T15:59:18.298Z,1985
2017-04-15T16:00:27.195Z,1860
2017-04-15T16:01:36.743Z,2330
2017-04-15T16:02:45.958Z,2240
2017-04-15T16:03:55.458Z,2200
2017-04-15T16:05:04.672Z,2155
2017-04-15T16:06:13.894Z,2190
2017-04-15T16:07:23.179Z,2235
2017-04-15T16:08:32.218Z,1590
2017-04-15T16:09:41.564Z,1975
2017-04-15T16:10:50.787Z,475
2017-04-15T16:12:00.183Z,400
2017-04-15T16:13:09.078Z,335